sensor_id;sensor_type;location;lat;lon;timestamp;P1;durP1;ratioP1;P2;durP2;ratioP2
64487;SDS011;50864;45.050;39.014;2023-02-01T00:01:48;13.52;;;6.65;;
64487;SDS011;50864;45.050;39.014;2023-02-01T00:04:15;14.48;;;7.43;;
64487;SDS011;50864;45.050;39.014;2023-02-01T00:06:41;17.00;;;7.55;;
64487;SDS011;50864;45.050;39.014;2023-02-01T00:09:07;15.18;;;6.93;;
64487;SDS011;50864;45.050;39.014;2023-02-01T00:11:33;17.55;;;8.95;;
64487;SDS011;50864;45.050;39.014;2023-02-01T00:13:59;13.07;;;7.47;;
64487;SDS011;50864;45.050;39.014;2023-02-01T00:16:26;13.88;;;7.82;;
64487;SDS011;50864;45.050;39.014;2023-02-01T00:18:59;14.40;;;8.10;;
64487;SDS011;50864;45.050;39.014;2023-02-01T00:21:31;13.27;;;7.35;;
64487;SDS011;50864;45.050;39.014;2023-02-01T00:23:57;15.80;;;8.60;;
64487;SDS011;50864;45.050;39.014;2023-02-01T00:26:30;18.35;;;9.32;;
64487;SDS011;50864;45.050;39.014;2023-02-01T00:28:59;14.68;;;8.32;;
64487;SDS011;50864;45.050;39.014;2023-02-01T00:31:25;34.85;;;16.80;;
64487;SDS011;50864;45.050;39.014;2023-02-01T00:33:51;16.70;;;8.65;;
64487;SDS011;50864;45.050;39.014;2023-02-01T00:36:17;17.75;;;8.75;;
64487;SDS011;50864;45.050;39.014;2023-02-01T00:38:43;13.25;;;7.22;;
64487;SDS011;50864;45.050;39.014;2023-02-01T00:41:11;15.10;;;7.78;;
64487;SDS011;50864;45.050;39.014;2023-02-01T00:43:39;16.98;;;9.02;;
64487;SDS011;50864;45.050;39.014;2023-02-01T00:46:05;15.00;;;7.10;;
64487;SDS011;50864;45.050;39.014;2023-02-01T00:48:31;13.45;;;7.28;;
64487;SDS011;50864;45.050;39.014;2023-02-01T00:51:00;13.50;;;7.45;;
64487;SDS011;50864;45.050;39.014;2023-02-01T00:53:27;29.33;;;13.27;;
64487;SDS011;50864;45.050;39.014;2023-02-01T00:55:53;14.57;;;7.30;;
64487;SDS011;50864;45.050;39.014;2023-02-01T00:58:19;13.00;;;6.90;;
64487;SDS011;50864;45.050;39.014;2023-02-01T01:00:45;14.30;;;7.93;;
64487;SDS011;50864;45.050;39.014;2023-02-01T01:03:11;18.60;;;9.05;;
64487;SDS011;50864;45.050;39.014;2023-02-01T01:05:47;23.95;;;10.82;;
64487;SDS011;50864;45.050;39.014;2023-02-01T01:08:15;14.90;;;7.05;;
64487;SDS011;50864;45.050;39.014;2023-02-01T01:10:41;13.80;;;7.28;;
64487;SDS011;50864;45.050;39.014;2023-02-01T01:13:08;15.48;;;7.97;;
64487;SDS011;50864;45.050;39.014;2023-02-01T01:15:38;16.73;;;7.72;;
64487;SDS011;50864;45.050;39.014;2023-02-01T01:18:05;14.77;;;7.07;;
64487;SDS011;50864;45.050;39.014;2023-02-01T01:20:33;15.65;;;8.15;;
64487;SDS011;50864;45.050;39.014;2023-02-01T01:23:00;15.63;;;8.63;;
64487;SDS011;50864;45.050;39.014;2023-02-01T01:25:36;15.73;;;8.07;;
64487;SDS011;50864;45.050;39.014;2023-02-01T01:28:04;15.23;;;7.20;;
64487;SDS011;50864;45.050;39.014;2023-02-01T01:30:30;15.65;;;8.15;;
64487;SDS011;50864;45.050;39.014;2023-02-01T01:32:56;18.65;;;8.93;;
64487;SDS011;50864;45.050;39.014;2023-02-01T01:35:22;19.02;;;8.68;;
64487;SDS011;50864;45.050;39.014;2023-02-01T01:37:48;17.87;;;8.93;;
64487;SDS011;50864;45.050;39.014;2023-02-01T01:40:14;18.15;;;8.75;;
64487;SDS011;50864;45.050;39.014;2023-02-01T01:42:41;19.45;;;9.18;;
64487;SDS011;50864;45.050;39.014;2023-02-01T01:45:22;16.90;;;8.23;;
64487;SDS011;50864;45.050;39.014;2023-02-01T01:47:55;19.80;;;9.25;;
64487;SDS011;50864;45.050;39.014;2023-02-01T01:50:50;17.05;;;8.15;;
64487;SDS011;50864;45.050;39.014;2023-02-01T01:53:28;20.27;;;10.13;;
64487;SDS011;50864;45.050;39.014;2023-02-01T01:55:59;22.52;;;11.10;;
64487;SDS011;50864;45.050;39.014;2023-02-01T01:58:26;22.23;;;11.05;;
64487;SDS011;50864;45.050;39.014;2023-02-01T02:00:55;19.95;;;10.38;;
64487;SDS011;50864;45.050;39.014;2023-02-01T02:03:22;22.55;;;10.80;;
64487;SDS011;50864;45.050;39.014;2023-02-01T02:05:54;19.90;;;9.32;;
64487;SDS011;50864;45.050;39.014;2023-02-01T02:08:23;27.05;;;10.65;;
64487;SDS011;50864;45.050;39.014;2023-02-01T02:10:52;22.27;;;10.23;;
64487;SDS011;50864;45.050;39.014;2023-02-01T02:13:32;23.45;;;11.23;;
64487;SDS011;50864;45.050;39.014;2023-02-01T02:22:27;21.17;;;8.57;;
64487;SDS011;50864;45.050;39.014;2023-02-01T02:36:00;15.50;;;7.87;;
64487;SDS011;50864;45.050;39.014;2023-02-01T02:39:03;15.55;;;8.00;;
64487;SDS011;50864;45.050;39.014;2023-02-01T02:53:35;15.35;;;8.35;;
64487;SDS011;50864;45.050;39.014;2023-02-01T02:56:27;15.27;;;7.80;;
64487;SDS011;50864;45.050;39.014;2023-02-01T02:59:14;17.98;;;8.48;;
64487;SDS011;50864;45.050;39.014;2023-02-01T03:02:01;15.20;;;8.15;;
64487;SDS011;50864;45.050;39.014;2023-02-01T03:04:46;16.87;;;7.80;;
64487;SDS011;50864;45.050;39.014;2023-02-01T03:07:45;15.35;;;7.12;;
64487;SDS011;50864;45.050;39.014;2023-02-01T03:10:23;18.70;;;8.23;;
64487;SDS011;50864;45.050;39.014;2023-02-01T03:12:59;23.27;;;9.52;;
64487;SDS011;50864;45.050;39.014;2023-02-01T03:18:04;19.10;;;7.60;;
64487;SDS011;50864;45.050;39.014;2023-02-01T03:20:41;15.38;;;7.65;;
64487;SDS011;50864;45.050;39.014;2023-02-01T03:23:10;20.50;;;8.45;;
64487;SDS011;50864;45.050;39.014;2023-02-01T03:25:40;19.12;;;7.90;;
64487;SDS011;50864;45.050;39.014;2023-02-01T03:28:07;19.95;;;8.75;;
64487;SDS011;50864;45.050;39.014;2023-02-01T03:30:35;16.60;;;7.30;;
64487;SDS011;50864;45.050;39.014;2023-02-01T03:33:07;21.10;;;7.97;;
64487;SDS011;50864;45.050;39.014;2023-02-01T03:38:20;18.10;;;8.20;;
64487;SDS011;50864;45.050;39.014;2023-02-01T03:41:10;15.00;;;7.35;;
64487;SDS011;50864;45.050;39.014;2023-02-01T03:43:51;16.42;;;8.10;;
64487;SDS011;50864;45.050;39.014;2023-02-01T03:46:21;18.00;;;8.18;;
64487;SDS011;50864;45.050;39.014;2023-02-01T03:51:19;14.77;;;6.97;;
64487;SDS011;50864;45.050;39.014;2023-02-01T03:53:46;17.70;;;7.55;;
64487;SDS011;50864;45.050;39.014;2023-02-01T03:56:16;17.60;;;7.50;;
64487;SDS011;50864;45.050;39.014;2023-02-01T03:58:43;15.68;;;7.28;;
64487;SDS011;50864;45.050;39.014;2023-02-01T04:01:25;55.03;;;23.75;;
64487;SDS011;50864;45.050;39.014;2023-02-01T04:03:52;33.22;;;12.07;;
64487;SDS011;50864;45.050;39.014;2023-02-01T04:06:19;22.42;;;9.13;;
64487;SDS011;50864;45.050;39.014;2023-02-01T04:08:45;22.85;;;9.57;;
64487;SDS011;50864;45.050;39.014;2023-02-01T04:11:11;19.02;;;8.95;;
64487;SDS011;50864;45.050;39.014;2023-02-01T04:13:37;21.65;;;9.02;;
64487;SDS011;50864;45.050;39.014;2023-02-01T04:16:02;18.67;;;9.05;;
64487;SDS011;50864;45.050;39.014;2023-02-01T04:18:29;18.92;;;9.00;;
64487;SDS011;50864;45.050;39.014;2023-02-01T04:20:54;19.55;;;9.15;;
64487;SDS011;50864;45.050;39.014;2023-02-01T04:23:20;19.85;;;8.88;;
64487;SDS011;50864;45.050;39.014;2023-02-01T04:25:46;23.73;;;10.05;;
64487;SDS011;50864;45.050;39.014;2023-02-01T04:28:12;21.62;;;9.57;;
64487;SDS011;50864;45.050;39.014;2023-02-01T04:30:38;18.52;;;8.73;;
64487;SDS011;50864;45.050;39.014;2023-02-01T04:33:04;22.67;;;9.80;;
64487;SDS011;50864;45.050;39.014;2023-02-01T04:35:30;20.35;;;9.15;;
64487;SDS011;50864;45.050;39.014;2023-02-01T04:37:56;19.95;;;9.48;;
64487;SDS011;50864;45.050;39.014;2023-02-01T04:40:22;17.80;;;9.60;;
64487;SDS011;50864;45.050;39.014;2023-02-01T04:42:48;17.37;;;8.93;;
64487;SDS011;50864;45.050;39.014;2023-02-01T04:45:15;20.00;;;9.75;;
64487;SDS011;50864;45.050;39.014;2023-02-01T04:47:41;19.37;;;8.80;;
64487;SDS011;50864;45.050;39.014;2023-02-01T04:50:07;22.23;;;8.68;;
64487;SDS011;50864;45.050;39.014;2023-02-01T04:52:36;19.65;;;9.27;;
64487;SDS011;50864;45.050;39.014;2023-02-01T04:55:03;23.95;;;10.98;;
64487;SDS011;50864;45.050;39.014;2023-02-01T04:57:29;19.80;;;9.55;;
64487;SDS011;50864;45.050;39.014;2023-02-01T04:59:55;23.80;;;9.90;;
64487;SDS011;50864;45.050;39.014;2023-02-01T05:02:21;19.23;;;10.18;;
64487;SDS011;50864;45.050;39.014;2023-02-01T05:04:47;23.67;;;11.15;;
64487;SDS011;50864;45.050;39.014;2023-02-01T05:07:13;24.15;;;10.70;;
64487;SDS011;50864;45.050;39.014;2023-02-01T05:09:40;23.73;;;11.40;;
64487;SDS011;50864;45.050;39.014;2023-02-01T05:12:05;22.40;;;9.95;;
64487;SDS011;50864;45.050;39.014;2023-02-01T05:14:50;25.25;;;11.02;;
64487;SDS011;50864;45.050;39.014;2023-02-01T05:17:16;25.23;;;11.15;;
64487;SDS011;50864;45.050;39.014;2023-02-01T05:19:42;25.02;;;11.07;;
64487;SDS011;50864;45.050;39.014;2023-02-01T05:22:08;25.27;;;10.70;;
64487;SDS011;50864;45.050;39.014;2023-02-01T05:24:34;23.90;;;11.27;;
64487;SDS011;50864;45.050;39.014;2023-02-01T05:26:59;22.10;;;10.50;;
64487;SDS011;50864;45.050;39.014;2023-02-01T05:29:26;23.77;;;12.37;;
64487;SDS011;50864;45.050;39.014;2023-02-01T05:31:52;23.83;;;12.25;;
64487;SDS011;50864;45.050;39.014;2023-02-01T05:34:17;25.42;;;11.32;;
64487;SDS011;50864;45.050;39.014;2023-02-01T05:36:44;21.52;;;10.93;;
64487;SDS011;50864;45.050;39.014;2023-02-01T05:39:10;27.10;;;12.18;;
64487;SDS011;50864;45.050;39.014;2023-02-01T05:41:36;25.30;;;12.50;;
64487;SDS011;50864;45.050;39.014;2023-02-01T05:44:02;24.17;;;11.27;;
64487;SDS011;50864;45.050;39.014;2023-02-01T05:46:28;23.75;;;11.95;;
64487;SDS011;50864;45.050;39.014;2023-02-01T05:48:54;21.52;;;11.55;;
64487;SDS011;50864;45.050;39.014;2023-02-01T05:51:20;29.90;;;13.43;;
64487;SDS011;50864;45.050;39.014;2023-02-01T05:53:46;25.73;;;11.63;;
64487;SDS011;50864;45.050;39.014;2023-02-01T05:56:12;27.05;;;12.55;;
64487;SDS011;50864;45.050;39.014;2023-02-01T05:58:38;25.23;;;11.93;;
64487;SDS011;50864;45.050;39.014;2023-02-01T06:01:04;20.50;;;10.70;;
64487;SDS011;50864;45.050;39.014;2023-02-01T06:03:30;26.40;;;11.75;;
64487;SDS011;50864;45.050;39.014;2023-02-01T06:05:56;23.20;;;11.30;;
64487;SDS011;50864;45.050;39.014;2023-02-01T06:08:22;29.35;;;12.45;;
64487;SDS011;50864;45.050;39.014;2023-02-01T06:10:51;27.17;;;12.30;;
64487;SDS011;50864;45.050;39.014;2023-02-01T06:13:23;27.95;;;12.77;;
64487;SDS011;50864;45.050;39.014;2023-02-01T06:15:49;30.02;;;12.90;;
64487;SDS011;50864;45.050;39.014;2023-02-01T06:18:15;25.23;;;13.43;;
64487;SDS011;50864;45.050;39.014;2023-02-01T06:20:41;21.33;;;11.45;;
64487;SDS011;50864;45.050;39.014;2023-02-01T06:23:07;23.45;;;11.80;;
64487;SDS011;50864;45.050;39.014;2023-02-01T06:25:33;27.00;;;12.63;;
64487;SDS011;50864;45.050;39.014;2023-02-01T06:28:02;24.52;;;12.20;;
64487;SDS011;50864;45.050;39.014;2023-02-01T06:30:31;28.38;;;12.37;;
64487;SDS011;50864;45.050;39.014;2023-02-01T06:32:57;22.25;;;10.35;;
64487;SDS011;50864;45.050;39.014;2023-02-01T06:35:23;23.15;;;11.70;;
64487;SDS011;50864;45.050;39.014;2023-02-01T06:37:49;30.58;;;13.20;;
64487;SDS011;50864;45.050;39.014;2023-02-01T06:40:16;24.95;;;12.13;;
64487;SDS011;50864;45.050;39.014;2023-02-01T06:42:42;26.55;;;12.35;;
64487;SDS011;50864;45.050;39.014;2023-02-01T06:45:08;29.42;;;13.27;;
64487;SDS011;50864;45.050;39.014;2023-02-01T06:47:35;32.42;;;13.52;;
64487;SDS011;50864;45.050;39.014;2023-02-01T06:50:01;25.23;;;12.77;;
64487;SDS011;50864;45.050;39.014;2023-02-01T06:52:27;28.02;;;12.68;;
64487;SDS011;50864;45.050;39.014;2023-02-01T06:54:53;31.08;;;13.90;;
64487;SDS011;50864;45.050;39.014;2023-02-01T06:57:19;27.90;;;13.65;;
64487;SDS011;50864;45.050;39.014;2023-02-01T06:59:47;28.40;;;13.48;;
64487;SDS011;50864;45.050;39.014;2023-02-01T07:02:13;36.83;;;17.87;;
64487;SDS011;50864;45.050;39.014;2023-02-01T07:04:39;30.85;;;13.70;;
64487;SDS011;50864;45.050;39.014;2023-02-01T07:07:04;30.05;;;14.98;;
64487;SDS011;50864;45.050;39.014;2023-02-01T07:09:30;30.42;;;15.63;;
64487;SDS011;50864;45.050;39.014;2023-02-01T07:11:56;33.28;;;16.10;;
64487;SDS011;50864;45.050;39.014;2023-02-01T07:14:22;41.15;;;17.40;;
64487;SDS011;50864;45.050;39.014;2023-02-01T07:16:48;37.85;;;17.08;;
64487;SDS011;50864;45.050;39.014;2023-02-01T07:19:14;36.13;;;17.70;;
64487;SDS011;50864;45.050;39.014;2023-02-01T07:21:40;31.60;;;14.75;;
64487;SDS011;50864;45.050;39.014;2023-02-01T07:24:06;40.85;;;18.60;;
64487;SDS011;50864;45.050;39.014;2023-02-01T07:26:32;37.28;;;18.05;;
64487;SDS011;50864;45.050;39.014;2023-02-01T07:28:58;40.10;;;17.75;;
64487;SDS011;50864;45.050;39.014;2023-02-01T07:31:25;33.92;;;15.15;;
64487;SDS011;50864;45.050;39.014;2023-02-01T07:33:51;25.95;;;13.43;;
64487;SDS011;50864;45.050;39.014;2023-02-01T07:36:18;32.38;;;14.52;;
64487;SDS011;50864;45.050;39.014;2023-02-01T07:38:44;29.50;;;15.65;;
64487;SDS011;50864;45.050;39.014;2023-02-01T07:41:12;27.13;;;13.57;;
64487;SDS011;50864;45.050;39.014;2023-02-01T07:43:38;27.52;;;13.18;;
64487;SDS011;50864;45.050;39.014;2023-02-01T07:46:05;24.70;;;13.15;;
64487;SDS011;50864;45.050;39.014;2023-02-01T07:48:32;25.98;;;11.40;;
64487;SDS011;50864;45.050;39.014;2023-02-01T07:51:02;28.87;;;13.07;;
64487;SDS011;50864;45.050;39.014;2023-02-01T07:53:31;25.10;;;12.07;;
64487;SDS011;50864;45.050;39.014;2023-02-01T07:55:58;25.20;;;13.20;;
64487;SDS011;50864;45.050;39.014;2023-02-01T07:58:25;26.52;;;12.73;;
64487;SDS011;50864;45.050;39.014;2023-02-01T08:00:51;21.95;;;10.52;;
64487;SDS011;50864;45.050;39.014;2023-02-01T08:03:36;23.92;;;10.85;;
64487;SDS011;50864;45.050;39.014;2023-02-01T08:06:02;23.33;;;12.77;;
64487;SDS011;50864;45.050;39.014;2023-02-01T08:08:28;22.58;;;12.50;;
64487;SDS011;50864;45.050;39.014;2023-02-01T08:11:01;24.23;;;14.35;;
64487;SDS011;50864;45.050;39.014;2023-02-01T08:13:29;28.52;;;17.20;;
64487;SDS011;50864;45.050;39.014;2023-02-01T08:15:59;26.67;;;13.90;;
64487;SDS011;50864;45.050;39.014;2023-02-01T08:18:25;24.58;;;12.70;;
64487;SDS011;50864;45.050;39.014;2023-02-01T08:20:51;18.52;;;10.80;;
64487;SDS011;50864;45.050;39.014;2023-02-01T08:23:18;19.27;;;11.12;;
64487;SDS011;50864;45.050;39.014;2023-02-01T08:25:45;25.37;;;13.85;;
64487;SDS011;50864;45.050;39.014;2023-02-01T08:28:11;27.65;;;15.23;;
64487;SDS011;50864;45.050;39.014;2023-02-01T08:30:37;18.75;;;10.73;;
64487;SDS011;50864;45.050;39.014;2023-02-01T08:33:04;28.77;;;15.43;;
64487;SDS011;50864;45.050;39.014;2023-02-01T08:35:34;25.70;;;12.73;;
64487;SDS011;50864;45.050;39.014;2023-02-01T08:38:01;27.20;;;15.68;;
64487;SDS011;50864;45.050;39.014;2023-02-01T08:40:27;24.42;;;13.00;;
64487;SDS011;50864;45.050;39.014;2023-02-01T08:42:53;25.37;;;12.15;;
64487;SDS011;50864;45.050;39.014;2023-02-01T08:45:22;23.38;;;12.85;;
64487;SDS011;50864;45.050;39.014;2023-02-01T08:47:53;21.35;;;13.60;;
64487;SDS011;50864;45.050;39.014;2023-02-01T08:50:19;17.42;;;9.48;;
64487;SDS011;50864;45.050;39.014;2023-02-01T08:52:46;18.33;;;9.30;;
64487;SDS011;50864;45.050;39.014;2023-02-01T08:55:13;19.48;;;9.25;;
64487;SDS011;50864;45.050;39.014;2023-02-01T08:57:39;19.67;;;11.18;;
64487;SDS011;50864;45.050;39.014;2023-02-01T09:00:06;14.80;;;8.30;;
64487;SDS011;50864;45.050;39.014;2023-02-01T09:02:35;19.60;;;11.45;;
64487;SDS011;50864;45.050;39.014;2023-02-01T09:05:02;23.80;;;14.80;;
64487;SDS011;50864;45.050;39.014;2023-02-01T09:07:29;23.48;;;12.30;;
64487;SDS011;50864;45.050;39.014;2023-02-01T09:09:55;20.73;;;10.68;;
64487;SDS011;50864;45.050;39.014;2023-02-01T09:12:21;21.70;;;12.73;;
64487;SDS011;50864;45.050;39.014;2023-02-01T09:14:48;16.67;;;9.68;;
64487;SDS011;50864;45.050;39.014;2023-02-01T09:17:14;22.87;;;12.57;;
64487;SDS011;50864;45.050;39.014;2023-02-01T09:19:40;16.90;;;9.52;;
64487;SDS011;50864;45.050;39.014;2023-02-01T09:22:06;22.08;;;11.45;;
64487;SDS011;50864;45.050;39.014;2023-02-01T09:24:32;18.60;;;11.30;;
64487;SDS011;50864;45.050;39.014;2023-02-01T09:26:59;19.17;;;9.80;;
64487;SDS011;50864;45.050;39.014;2023-02-01T09:29:26;17.87;;;11.23;;
64487;SDS011;50864;45.050;39.014;2023-02-01T09:31:52;24.40;;;14.02;;
64487;SDS011;50864;45.050;39.014;2023-02-01T09:34:18;21.02;;;10.57;;
64487;SDS011;50864;45.050;39.014;2023-02-01T09:36:44;24.80;;;13.30;;
64487;SDS011;50864;45.050;39.014;2023-02-01T09:39:10;23.20;;;13.50;;
64487;SDS011;50864;45.050;39.014;2023-02-01T09:41:42;24.70;;;13.65;;
64487;SDS011;50864;45.050;39.014;2023-02-01T09:47:17;27.13;;;12.35;;
64487;SDS011;50864;45.050;39.014;2023-02-01T09:52:25;23.20;;;14.27;;
64487;SDS011;50864;45.050;39.014;2023-02-01T09:55:16;22.37;;;12.27;;
64487;SDS011;50864;45.050;39.014;2023-02-01T10:00:26;21.48;;;11.85;;
64487;SDS011;50864;45.050;39.014;2023-02-01T10:02:55;19.17;;;12.15;;
64487;SDS011;50864;45.050;39.014;2023-02-01T10:05:31;22.70;;;11.65;;
64487;SDS011;50864;45.050;39.014;2023-02-01T10:10:43;20.55;;;11.68;;
64487;SDS011;50864;45.050;39.014;2023-02-01T10:16:13;21.83;;;12.02;;
64487;SDS011;50864;45.050;39.014;2023-02-01T10:22:08;17.85;;;10.05;;
64487;SDS011;50864;45.050;39.014;2023-02-01T10:24:37;20.62;;;11.45;;
64487;SDS011;50864;45.050;39.014;2023-02-01T10:27:13;15.85;;;8.80;;
64487;SDS011;50864;45.050;39.014;2023-02-01T10:29:44;18.45;;;11.93;;
64487;SDS011;50864;45.050;39.014;2023-02-01T10:32:21;17.25;;;10.25;;
64487;SDS011;50864;45.050;39.014;2023-02-01T10:35:05;12.95;;;6.62;;
64487;SDS011;50864;45.050;39.014;2023-02-01T10:37:43;19.48;;;10.55;;
64487;SDS011;50864;45.050;39.014;2023-02-01T10:40:21;19.08;;;12.95;;
64487;SDS011;50864;45.050;39.014;2023-02-01T10:42:52;17.27;;;11.80;;
64487;SDS011;50864;45.050;39.014;2023-02-01T10:45:21;11.43;;;6.87;;
64487;SDS011;50864;45.050;39.014;2023-02-01T10:47:51;19.27;;;11.12;;
64487;SDS011;50864;45.050;39.014;2023-02-01T10:50:25;21.65;;;10.13;;
64487;SDS011;50864;45.050;39.014;2023-02-01T10:53:18;20.48;;;9.95;;
64487;SDS011;50864;45.050;39.014;2023-02-01T10:55:56;14.13;;;8.98;;
64487;SDS011;50864;45.050;39.014;2023-02-01T10:58:28;17.15;;;9.52;;
64487;SDS011;50864;45.050;39.014;2023-02-01T11:00:57;17.95;;;8.90;;
64487;SDS011;50864;45.050;39.014;2023-02-01T11:03:33;17.35;;;7.87;;
64487;SDS011;50864;45.050;39.014;2023-02-01T11:06:00;19.83;;;9.48;;
64487;SDS011;50864;45.050;39.014;2023-02-01T11:08:29;19.05;;;10.98;;
64487;SDS011;50864;45.050;39.014;2023-02-01T11:10:59;15.63;;;8.65;;
64487;SDS011;50864;45.050;39.014;2023-02-01T11:13:30;16.85;;;9.90;;
64487;SDS011;50864;45.050;39.014;2023-02-01T11:15:59;14.87;;;8.63;;
64487;SDS011;50864;45.050;39.014;2023-02-01T11:18:28;18.35;;;10.30;;
64487;SDS011;50864;45.050;39.014;2023-02-01T11:21:18;18.67;;;11.38;;
64487;SDS011;50864;45.050;39.014;2023-02-01T11:23:49;19.92;;;9.20;;
64487;SDS011;50864;45.050;39.014;2023-02-01T11:26:25;17.98;;;9.43;;
64487;SDS011;50864;45.050;39.014;2023-02-01T11:28:54;18.98;;;10.70;;
64487;SDS011;50864;45.050;39.014;2023-02-01T11:31:25;14.15;;;7.78;;
64487;SDS011;50864;45.050;39.014;2023-02-01T11:33:53;14.98;;;8.93;;
64487;SDS011;50864;45.050;39.014;2023-02-01T11:36:40;15.48;;;8.43;;
64487;SDS011;50864;45.050;39.014;2023-02-01T11:44:22;16.80;;;10.85;;
64487;SDS011;50864;45.050;39.014;2023-02-01T11:49:41;17.15;;;8.75;;
64487;SDS011;50864;45.050;39.014;2023-02-01T12:01:12;22.95;;;9.60;;
64487;SDS011;50864;45.050;39.014;2023-02-01T12:09:40;15.68;;;8.90;;
64487;SDS011;50864;45.050;39.014;2023-02-01T12:15:22;16.00;;;10.40;;
64487;SDS011;50864;45.050;39.014;2023-02-01T12:46:26;11.70;;;7.03;;
64487;SDS011;50864;45.050;39.014;2023-02-01T12:49:02;17.52;;;10.10;;
64487;SDS011;50864;45.050;39.014;2023-02-01T12:51:45;17.58;;;10.05;;
64487;SDS011;50864;45.050;39.014;2023-02-01T12:54:31;19.17;;;8.18;;
64487;SDS011;50864;45.050;39.014;2023-02-01T12:57:05;16.10;;;7.80;;
64487;SDS011;50864;45.050;39.014;2023-02-01T12:59:42;16.95;;;9.85;;
64487;SDS011;50864;45.050;39.014;2023-02-01T13:02:22;13.65;;;8.07;;
64487;SDS011;50864;45.050;39.014;2023-02-01T13:08:22;15.25;;;8.10;;
64487;SDS011;50864;45.050;39.014;2023-02-01T13:14:01;15.52;;;8.73;;
64487;SDS011;50864;45.050;39.014;2023-02-01T13:16:43;15.57;;;9.45;;
64487;SDS011;50864;45.050;39.014;2023-02-01T13:19:55;16.35;;;8.23;;
64487;SDS011;50864;45.050;39.014;2023-02-01T13:25:04;18.70;;;10.00;;
64487;SDS011;50864;45.050;39.014;2023-02-01T13:27:38;27.90;;;16.83;;
64487;SDS011;50864;45.050;39.014;2023-02-01T13:40:54;18.35;;;9.88;;
64487;SDS011;50864;45.050;39.014;2023-02-01T13:43:41;19.75;;;9.40;;
64487;SDS011;50864;45.050;39.014;2023-02-01T13:46:11;18.42;;;9.38;;
64487;SDS011;50864;45.050;39.014;2023-02-01T13:51:41;18.65;;;9.98;;
64487;SDS011;50864;45.050;39.014;2023-02-01T13:57:02;26.92;;;13.43;;
64487;SDS011;50864;45.050;39.014;2023-02-01T14:05:12;97.62;;;42.10;;
64487;SDS011;50864;45.050;39.014;2023-02-01T14:21:34;54.63;;;23.75;;
64487;SDS011;50864;45.050;39.014;2023-02-01T14:26:45;33.33;;;17.40;;
64487;SDS011;50864;45.050;39.014;2023-02-01T14:29:31;73.28;;;35.55;;
64487;SDS011;50864;45.050;39.014;2023-02-01T14:32:06;45.33;;;25.83;;
64487;SDS011;50864;45.050;39.014;2023-02-01T14:42:22;27.75;;;15.30;;
64487;SDS011;50864;45.050;39.014;2023-02-01T14:47:49;26.17;;;14.50;;
64487;SDS011;50864;45.050;39.014;2023-02-01T14:55:42;26.95;;;13.85;;
64487;SDS011;50864;45.050;39.014;2023-02-01T15:01:21;23.62;;;14.15;;
64487;SDS011;50864;45.050;39.014;2023-02-01T15:03:55;22.30;;;11.40;;
64487;SDS011;50864;45.050;39.014;2023-02-01T15:09:20;20.73;;;9.93;;
64487;SDS011;50864;45.050;39.014;2023-02-01T15:12:03;27.10;;;10.82;;
64487;SDS011;50864;45.050;39.014;2023-02-01T15:14:45;23.20;;;10.60;;
64487;SDS011;50864;45.050;39.014;2023-02-01T15:17:24;22.27;;;11.02;;
64487;SDS011;50864;45.050;39.014;2023-02-01T15:19:59;19.30;;;10.13;;
64487;SDS011;50864;45.050;39.014;2023-02-01T15:22:27;21.62;;;10.23;;
64487;SDS011;50864;45.050;39.014;2023-02-01T15:24:54;22.08;;;10.80;;
64487;SDS011;50864;45.050;39.014;2023-02-01T15:27:22;23.00;;;11.20;;
64487;SDS011;50864;45.050;39.014;2023-02-01T15:29:48;19.30;;;10.52;;
64487;SDS011;50864;45.050;39.014;2023-02-01T15:34:59;19.45;;;11.27;;
64487;SDS011;50864;45.050;39.014;2023-02-01T15:37:26;22.17;;;11.00;;
64487;SDS011;50864;45.050;39.014;2023-02-01T15:42:38;19.50;;;10.57;;
64487;SDS011;50864;45.050;39.014;2023-02-01T15:45:18;28.52;;;13.62;;
64487;SDS011;50864;45.050;39.014;2023-02-01T15:47:49;24.75;;;11.12;;
64487;SDS011;50864;45.050;39.014;2023-02-01T15:50:18;20.65;;;10.77;;
64487;SDS011;50864;45.050;39.014;2023-02-01T15:52:49;23.80;;;9.57;;
64487;SDS011;50864;45.050;39.014;2023-02-01T15:55:18;16.75;;;9.10;;
64487;SDS011;50864;45.050;39.014;2023-02-01T15:58:18;20.60;;;9.77;;
64487;SDS011;50864;45.050;39.014;2023-02-01T16:00:48;16.58;;;9.32;;
64487;SDS011;50864;45.050;39.014;2023-02-01T16:06:10;20.10;;;9.77;;
64487;SDS011;50864;45.050;39.014;2023-02-01T16:08:50;18.80;;;9.23;;
64487;SDS011;50864;45.050;39.014;2023-02-01T16:11:41;21.98;;;11.05;;
64487;SDS011;50864;45.050;39.014;2023-02-01T16:14:07;22.92;;;11.50;;
64487;SDS011;50864;45.050;39.014;2023-02-01T16:16:33;23.10;;;10.32;;
64487;SDS011;50864;45.050;39.014;2023-02-01T16:18:58;23.25;;;9.98;;
64487;SDS011;50864;45.050;39.014;2023-02-01T16:21:25;23.17;;;11.12;;
64487;SDS011;50864;45.050;39.014;2023-02-01T16:23:51;21.12;;;11.43;;
64487;SDS011;50864;45.050;39.014;2023-02-01T16:26:18;24.00;;;11.30;;
64487;SDS011;50864;45.050;39.014;2023-02-01T16:28:45;23.15;;;10.95;;
64487;SDS011;50864;45.050;39.014;2023-02-01T16:31:12;22.02;;;11.48;;
64487;SDS011;50864;45.050;39.014;2023-02-01T16:33:46;20.25;;;10.93;;
64487;SDS011;50864;45.050;39.014;2023-02-01T16:36:14;21.98;;;10.13;;
64487;SDS011;50864;45.050;39.014;2023-02-01T16:38:40;20.35;;;9.90;;
64487;SDS011;50864;45.050;39.014;2023-02-01T16:41:09;29.02;;;11.07;;
64487;SDS011;50864;45.050;39.014;2023-02-01T16:43:38;18.30;;;9.45;;
64487;SDS011;50864;45.050;39.014;2023-02-01T16:46:04;21.75;;;10.63;;
64487;SDS011;50864;45.050;39.014;2023-02-01T16:48:32;22.55;;;11.10;;
64487;SDS011;50864;45.050;39.014;2023-02-01T16:51:01;24.77;;;11.73;;
64487;SDS011;50864;45.050;39.014;2023-02-01T16:53:35;21.60;;;10.90;;
64487;SDS011;50864;45.050;39.014;2023-02-01T16:56:04;22.80;;;11.60;;
64487;SDS011;50864;45.050;39.014;2023-02-01T16:58:45;23.90;;;11.43;;
64487;SDS011;50864;45.050;39.014;2023-02-01T17:01:12;24.08;;;12.27;;
64487;SDS011;50864;45.050;39.014;2023-02-01T17:03:41;31.37;;;16.10;;
64487;SDS011;50864;45.050;39.014;2023-02-01T17:06:09;26.42;;;12.77;;
64487;SDS011;50864;45.050;39.014;2023-02-01T17:08:39;24.35;;;12.65;;
64487;SDS011;50864;45.050;39.014;2023-02-01T17:11:07;25.30;;;13.20;;
64487;SDS011;50864;45.050;39.014;2023-02-01T17:13:36;24.00;;;12.73;;
64487;SDS011;50864;45.050;39.014;2023-02-01T17:16:04;24.45;;;12.37;;
64487;SDS011;50864;45.050;39.014;2023-02-01T17:18:35;23.48;;;12.23;;
64487;SDS011;50864;45.050;39.014;2023-02-01T17:24:01;26.20;;;11.35;;
64487;SDS011;50864;45.050;39.014;2023-02-01T17:26:26;23.30;;;12.15;;
64487;SDS011;50864;45.050;39.014;2023-02-01T17:29:12;19.92;;;10.52;;
64487;SDS011;50864;45.050;39.014;2023-02-01T17:31:39;24.98;;;12.85;;
64487;SDS011;50864;45.050;39.014;2023-02-01T17:34:09;20.85;;;10.70;;
64487;SDS011;50864;45.050;39.014;2023-02-01T17:36:36;23.27;;;11.80;;
64487;SDS011;50864;45.050;39.014;2023-02-01T17:39:04;19.87;;;10.60;;
64487;SDS011;50864;45.050;39.014;2023-02-01T17:41:30;24.33;;;12.00;;